Eclectic, Alabama
Current Conditions -  °F | °C
As of 9:35 AM on Friday 19 Dec 2014 (Local Time) from KALX Reporting Station
Clear Clear  
Wind Chill: 47°   Ceiling: Unl
Heat Index: 49°   Visibility: 10mi
Dew Point: 36°   Wind: 6mph
Humidity: 60%   Direction: 40°NE
Pressure: 30.19"   Gusts: NA
Location:  32.64°N, 86.03°W
Report Text: KALX 191535Z AUTO 04005KT 10SM CLR 10/02 A3019 RMK AO2 T00950020
Loading
Personal Weather Stations






























Interactive Weather Map New forecast layout! Learn more

10-Day Weather Forecast

Advertisements
Track Severe Weather on mobile